Terminal Aerodrome Forecast
Issued by NWS Glasgow, MT

Home | Current Version | Previous Version | Text Only | Print | Product List | Glossary On
Versions: 1 2 3 4 5 6 7 8 9 10 11 12 13
000
FTUS45 KGGW 230520
TAFGGW
TAF
KGGW 230520Z 2306/2406 30020G30KT P6SM SCT080
     FM231400 29013KT P6SM FEW180
     FM231800 30019G27KT P6SM FEW170
     FM240100 30010KT P6SM SKC
     FM240400 29006KT P6SM FEW200=

USA.gov is the U.S. government's official web portal to all federal, state and local government web resources and services.